createdAt,value
2018-08-16T10:00:11.487Z,23.40
2018-08-16T10:02:46.016Z,23.30
2018-08-16T10:05:30.033Z,23.30
2018-08-16T10:08:05.643Z,23.40
2018-08-16T10:13:24.428Z,23.60
2018-08-16T10:22:51.942Z,23.80
2018-08-16T10:25:25.559Z,23.80
2018-08-16T10:27:57.810Z,23.80
2018-08-16T10:30:31.706Z,24.00
2018-08-16T10:33:04.146Z,24.20
2018-08-16T10:43:48.778Z,24.80
2018-08-16T10:46:57.620Z,24.80
2018-08-16T10:49:35.242Z,24.80
2018-08-16T10:52:24.414Z,24.60
2018-08-16T10:54:57.350Z,24.50
2018-08-16T11:06:52.603Z,24.70
2018-08-16T11:09:24.648Z,24.50
2018-08-16T11:11:54.989Z,24.30
2018-08-16T11:14:27.734Z,24.20
2018-08-16T11:17:02.257Z,24.10
2018-08-16T11:19:34.020Z,24.10
2018-08-16T11:22:04.941Z,24.10
2018-08-16T11:24:40.339Z,24.10
2018-08-16T11:27:12.887Z,24.20
2018-08-16T11:29:42.703Z,24.20
2018-08-16T11:32:12.142Z,24.20
2018-08-16T11:34:44.664Z,24.20
2018-08-16T11:37:17.471Z,24.20
2018-08-16T11:39:49.432Z,24.30
2018-08-16T11:42:20.553Z,24.20
2018-08-16T11:44:58.291Z,24.30
2018-08-16T11:47:29.698Z,24.40
2018-08-16T11:50:00.012Z,24.50
2018-08-16T11:52:32.032Z,24.50
2018-08-16T11:55:02.512Z,24.40
2018-08-16T11:57:37.327Z,24.20
2018-08-16T13:27:49.343Z,25.10
2018-08-16T13:30:21.940Z,25.00
2018-08-16T13:33:01.024Z,24.90
2018-08-16T13:41:56.297Z,24.80
2018-08-16T13:44:26.498Z,24.80
2018-08-16T13:57:40.195Z,24.30
2018-08-16T14:00:14.456Z,24.30
2018-08-16T14:02:45.992Z,24.50
2018-08-16T14:05:17.545Z,24.50
2018-08-16T14:07:50.378Z,24.40
2018-08-16T14:10:24.468Z,24.40
2018-08-16T14:12:57.135Z,24.30
2018-08-16T14:15:30.068Z,24.40
2018-08-16T14:20:56.279Z,24.50
2018-08-16T14:23:27.867Z,24.40
2018-08-16T14:26:00.104Z,24.40
2018-08-16T14:28:32.329Z,24.20
2018-08-16T14:31:05.285Z,24.10
2018-08-16T14:33:38.280Z,24.20
2018-08-16T14:36:10.937Z,24.30
2018-08-16T14:42:32.258Z,24.30
2018-08-16T14:45:03.844Z,24.30
2018-08-16T14:47:35.592Z,24.30
2018-08-16T14:50:06.454Z,24.10
2018-08-16T14:52:38.929Z,24.20
2018-08-16T14:55:11.193Z,24.10
2018-08-16T14:57:42.985Z,24.20
2018-08-16T15:00:14.694Z,24.30
2018-08-16T15:02:52.493Z,24.20
2018-08-16T15:05:25.181Z,24.20
2018-08-16T15:07:57.121Z,24.10
2018-08-16T15:10:28.434Z,24.30
2018-08-16T15:12:59.786Z,24.40
2018-08-16T15:15:31.311Z,24.40
2018-08-16T15:18:02.269Z,24.30
2018-08-16T15:20:32.572Z,24.10
2018-08-16T15:23:07.157Z,24.00
2018-08-16T15:25:37.012Z,24.00
2018-08-16T15:28:07.246Z,24.00
2018-08-16T15:30:37.800Z,24.00
2018-08-16T15:33:08.883Z,23.80
2018-08-16T15:35:38.575Z,23.80
2018-08-16T15:38:09.171Z,23.80
2018-08-16T15:40:39.124Z,23.70
2018-08-16T15:43:14.879Z,23.70
2018-08-16T15:45:44.872Z,23.60
2018-08-16T15:48:16.438Z,23.60
2018-08-16T15:50:46.757Z,23.60
2018-08-16T15:53:17.344Z,23.50
2018-08-16T15:55:47.316Z,23.40
2018-08-16T15:58:18.906Z,23.40
2018-08-16T16:00:49.398Z,23.40
2018-08-16T16:03:23.815Z,23.40
2018-08-16T16:05:53.432Z,23.40
2018-08-16T16:08:23.968Z,23.30
2018-08-16T16:17:37.408Z,23.30
2018-08-16T16:20:09.103Z,23.20
2018-08-16T16:22:40.332Z,23.20
2018-08-16T16:25:12.808Z,23.10
2018-08-16T16:27:43.278Z,23.00
2018-08-16T16:33:33.847Z,22.90
2018-08-16T16:36:05.948Z,22.80
2018-08-16T16:38:38.119Z,22.80
2018-08-16T16:41:10.054Z,22.80
2018-08-16T16:43:41.136Z,22.80
2018-08-16T16:46:13.120Z,22.80
2018-08-16T16:48:44.766Z,22.80
2018-08-16T16:51:24.140Z,22.80
2018-08-16T16:53:55.364Z,22.80
2018-08-16T16:59:40.695Z,22.70
2018-08-16T17:02:11.871Z,22.60
2018-08-16T17:04:42.553Z,22.60
2018-08-16T17:07:17.043Z,22.50
2018-08-16T17:09:50.146Z,22.40
2018-08-16T17:12:21.483Z,22.40
2018-08-16T17:14:56.407Z,22.30
2018-08-16T17:17:32.303Z,22.30
2018-08-16T17:20:04.558Z,22.30
2018-08-16T17:22:37.157Z,22.20
2018-08-16T17:25:15.122Z,22.10
2018-08-16T17:27:49.068Z,22.10
2018-08-16T17:37:54.284Z,22.10
2018-08-16T17:40:28.291Z,22.00
2018-08-16T17:43:00.464Z,21.80
2018-08-16T17:45:33.043Z,21.70
2018-08-16T17:48:05.088Z,21.70
2018-08-16T17:50:39.016Z,21.60
2018-08-16T17:53:11.970Z,21.60
2018-08-16T17:55:43.784Z,21.60
2018-08-16T17:58:18.910Z,21.50
2018-08-16T18:00:50.854Z,21.40
2018-08-16T18:03:23.362Z,21.40
2018-08-16T18:05:55.842Z,21.40
2018-08-16T18:08:27.772Z,21.40
2018-08-16T18:11:19.342Z,21.30
2018-08-16T18:13:51.111Z,21.30
2018-08-16T18:16:24.390Z,21.20
2018-08-16T18:18:55.150Z,21.20
2018-08-16T18:21:25.579Z,21.20
2018-08-16T18:23:58.627Z,21.20
2018-08-16T18:31:02.729Z,21.10
2018-08-16T18:33:35.196Z,21.10
2018-08-16T18:36:06.473Z,21.00
2018-08-16T18:38:37.804Z,21.00
2018-08-16T18:41:11.965Z,21.00
2018-08-16T18:43:45.023Z,21.00
2018-08-16T18:46:17.547Z,20.90
2018-08-16T18:48:50.029Z,20.90
2018-08-16T18:51:23.794Z,20.80
2018-08-16T18:53:54.210Z,20.80
2018-08-16T18:56:26.115Z,20.80
2018-08-16T18:58:57.349Z,20.70
2018-08-16T19:01:27.559Z,20.70
2018-08-16T19:03:58.672Z,20.70
2018-08-16T19:06:32.039Z,20.70
2018-08-16T19:09:04.474Z,20.60
2018-08-16T19:11:36.807Z,20.60
2018-08-16T19:14:10.466Z,20.60
2018-08-16T19:16:42.107Z,20.50
2018-08-16T19:19:14.758Z,20.50
2018-08-16T19:21:48.121Z,20.50
2018-08-16T19:24:18.634Z,20.50
2018-08-16T19:26:49.335Z,20.50
2018-08-16T19:29:26.063Z,20.50
2018-08-16T19:31:58.263Z,20.50
2018-08-16T19:34:29.709Z,20.50
2018-08-16T19:37:02.109Z,20.50
2018-08-16T19:39:33.008Z,20.40
2018-08-16T19:42:03.900Z,20.40
2018-08-16T19:44:34.735Z,20.40
2018-08-16T19:47:06.506Z,20.40
2018-08-16T19:49:38.648Z,20.40
2018-08-16T19:52:12.030Z,20.40
2018-08-16T19:54:43.289Z,20.40
2018-08-16T19:57:12.892Z,20.40
2018-08-16T19:59:43.345Z,20.40
2018-08-16T20:02:13.533Z,20.40
2018-08-16T20:04:44.796Z,20.30
2018-08-16T20:07:17.644Z,20.30
2018-08-16T20:09:49.770Z,20.40
2018-08-16T20:12:27.495Z,20.40
2018-08-16T20:14:58.903Z,20.40
2018-08-16T20:17:29.275Z,20.40
2018-08-16T20:19:59.797Z,20.30
2018-08-16T20:22:30.106Z,20.30
2018-08-16T20:25:03.155Z,20.30
2018-08-16T20:27:34.668Z,20.20
2018-08-16T20:30:08.093Z,20.30
2018-08-16T20:33:21.159Z,20.30
2018-08-16T20:35:51.976Z,20.20
2018-08-16T20:38:23.256Z,20.20
2018-08-16T20:40:55.015Z,20.20
2018-08-16T20:43:26.741Z,20.10
2018-08-16T20:45:56.557Z,20.10
2018-08-16T20:48:28.455Z,20.10
2018-08-16T20:50:59.628Z,20.10
2018-08-16T20:53:30.475Z,20.10
2018-08-16T20:56:01.288Z,20.10
2018-08-16T20:58:31.543Z,20.10
2018-08-16T21:01:05.171Z,20.00
2018-08-16T21:03:36.004Z,20.00
2018-08-16T21:06:08.122Z,20.00
2018-08-16T21:08:40.444Z,20.00
2018-08-16T21:11:12.748Z,20.10
2018-08-16T21:13:57.007Z,20.10
2018-08-16T21:16:28.123Z,20.00
2018-08-16T21:18:59.615Z,20.00
2018-08-16T21:21:31.077Z,19.90
2018-08-16T21:24:06.018Z,19.90
2018-08-16T21:26:38.250Z,19.90
2018-08-16T21:29:10.911Z,19.90
2018-08-16T21:31:42.649Z,19.90
2018-08-16T21:38:04.056Z,19.90
2018-08-16T21:40:35.184Z,19.90
2018-08-16T21:43:06.960Z,19.90
2018-08-16T21:45:38.619Z,19.90
2018-08-16T21:48:10.451Z,19.90
2018-08-16T21:50:41.586Z,19.90
2018-08-16T21:54:41.527Z,19.90
2018-08-16T21:57:13.839Z,19.90
2018-08-16T21:59:45.084Z,19.80
2018-08-16T22:02:17.539Z,19.70
2018-08-16T22:04:47.613Z,19.70
2018-08-16T22:07:27.702Z,19.70
2018-08-16T22:09:58.547Z,19.60
2018-08-16T22:12:30.512Z,19.60
2018-08-16T22:15:02.850Z,19.60
2018-08-16T22:17:40.188Z,19.60
2018-08-16T22:20:12.483Z,19.60
2018-08-16T22:22:44.859Z,19.60
2018-08-16T22:25:16.629Z,19.60
2018-08-16T22:27:49.210Z,19.50
2018-08-16T22:30:21.264Z,19.50
2018-08-16T22:32:53.492Z,19.50
2018-08-16T22:35:23.778Z,19.50
2018-08-16T22:37:55.394Z,19.50
2018-08-16T22:40:26.852Z,19.50
2018-08-16T22:42:58.761Z,19.50
2018-08-16T22:45:28.968Z,19.60
2018-08-16T22:48:01.454Z,19.60
2018-08-16T22:50:33.400Z,19.60
2018-08-16T22:53:03.828Z,19.70
2018-08-16T22:55:36.184Z,19.70
2018-08-16T22:58:15.172Z,19.70
2018-08-16T23:00:45.808Z,19.70
2018-08-16T23:03:18.041Z,19.70
2018-08-16T23:05:50.127Z,19.70
2018-08-16T23:08:21.777Z,19.70
2018-08-16T23:10:51.836Z,19.60
2018-08-16T23:13:24.540Z,19.60
2018-08-16T23:15:55.684Z,19.50
2018-08-16T23:18:33.074Z,19.50
2018-08-16T23:21:05.803Z,19.50
2018-08-16T23:23:37.735Z,19.50
2018-08-16T23:26:10.378Z,19.50
2018-08-16T23:28:42.143Z,19.50
2018-08-16T23:31:15.009Z,19.40
2018-08-16T23:33:45.400Z,19.40
2018-08-16T23:36:16.293Z,19.40
2018-08-16T23:38:54.349Z,19.30
2018-08-16T23:41:26.697Z,19.30
2018-08-16T23:43:58.943Z,19.30
2018-08-16T23:46:30.429Z,19.20
2018-08-16T23:49:10.195Z,19.20
2018-08-16T23:51:42.274Z,19.30
2018-08-16T23:54:13.215Z,19.30
2018-08-16T23:56:44.096Z,19.30
2018-08-16T23:59:24.862Z,19.30
